sensor_id;sensor_type;location;lat;lon;timestamp;temperature;humidity
20422;DHT22;10370;53.102;18.034;2022-10-16T00:04:58;12.90;99.90
20422;DHT22;10370;53.102;18.034;2022-10-16T00:15:54;12.60;99.90
20422;DHT22;10370;53.102;18.034;2022-10-16T00:21:20;12.50;99.90
20422;DHT22;10370;53.102;18.034;2022-10-16T00:32:33;12.30;99.90
20422;DHT22;10370;53.102;18.034;2022-10-16T00:54:42;12.70;99.90
20422;DHT22;10370;53.102;18.034;2022-10-16T01:11:00;12.90;99.90
20422;DHT22;10370;53.102;18.034;2022-10-16T01:16:28;12.90;99.90
20422;DHT22;10370;53.102;18.034;2022-10-16T01:37:58;12.90;99.90
20422;DHT22;10370;53.102;18.034;2022-10-16T01:49:16;12.90;99.90
20422;DHT22;10370;53.102;18.034;2022-10-16T02:17:15;12.70;99.90
20422;DHT22;10370;53.102;18.034;2022-10-16T02:22:41;12.70;99.90
20422;DHT22;10370;53.102;18.034;2022-10-16T02:39:20;12.80;99.90
20422;DHT22;10370;53.102;18.034;2022-10-16T02:44:55;12.90;99.90
20422;DHT22;10370;53.102;18.034;2022-10-16T02:55:44;12.90;99.90
20422;DHT22;10370;53.102;18.034;2022-10-16T03:01:05;13.00;99.90
20422;DHT22;10370;53.102;18.034;2022-10-16T03:06:26;13.00;99.90
20422;DHT22;10370;53.102;18.034;2022-10-16T03:11:47;13.00;99.90
20422;DHT22;10370;53.102;18.034;2022-10-16T03:17:07;13.00;99.90
20422;DHT22;10370;53.102;18.034;2022-10-16T03:22:33;13.00;99.90
20422;DHT22;10370;53.102;18.034;2022-10-16T03:27:53;13.10;99.90
20422;DHT22;10370;53.102;18.034;2022-10-16T03:33:14;13.10;99.90
20422;DHT22;10370;53.102;18.034;2022-10-16T03:38:35;13.10;99.90
20422;DHT22;10370;53.102;18.034;2022-10-16T03:44:00;13.10;99.90
20422;DHT22;10370;53.102;18.034;2022-10-16T03:49:21;13.10;99.90
20422;DHT22;10370;53.102;18.034;2022-10-16T03:54:42;13.10;99.90
20422;DHT22;10370;53.102;18.034;2022-10-16T04:05:37;13.00;99.90
20422;DHT22;10370;53.102;18.034;2022-10-16T04:10:57;13.00;99.90
20422;DHT22;10370;53.102;18.034;2022-10-16T04:16:18;13.10;99.90
20422;DHT22;10370;53.102;18.034;2022-10-16T04:26:59;13.10;99.90
20422;DHT22;10370;53.102;18.034;2022-10-16T04:32:20;13.20;99.90
20422;DHT22;10370;53.102;18.034;2022-10-16T04:37:41;13.20;99.90
20422;DHT22;10370;53.102;18.034;2022-10-16T04:48:49;13.20;99.90
20422;DHT22;10370;53.102;18.034;2022-10-16T04:54:10;13.20;99.90
20422;DHT22;10370;53.102;18.034;2022-10-16T04:59:30;13.20;99.90
20422;DHT22;10370;53.102;18.034;2022-10-16T05:04:51;13.20;99.90
20422;DHT22;10370;53.102;18.034;2022-10-16T05:10:12;13.30;99.90
20422;DHT22;10370;53.102;18.034;2022-10-16T05:15:33;13.30;99.90
20422;DHT22;10370;53.102;18.034;2022-10-16T05:20:56;13.30;99.90
20422;DHT22;10370;53.102;18.034;2022-10-16T05:31:51;13.40;99.90
20422;DHT22;10370;53.102;18.034;2022-10-16T05:37:13;13.50;99.90
20422;DHT22;10370;53.102;18.034;2022-10-16T05:48:08;13.70;99.90
20422;DHT22;10370;53.102;18.034;2022-10-16T05:53:29;13.80;99.90
20422;DHT22;10370;53.102;18.034;2022-10-16T05:58:50;13.90;99.90
20422;DHT22;10370;53.102;18.034;2022-10-16T06:04:11;14.10;99.90
20422;DHT22;10370;53.102;18.034;2022-10-16T06:15:11;14.30;99.90
20422;DHT22;10370;53.102;18.034;2022-10-16T06:26:36;14.50;99.90
20422;DHT22;10370;53.102;18.034;2022-10-16T06:31:57;14.50;99.90
20422;DHT22;10370;53.102;18.034;2022-10-16T06:37:18;14.60;99.90
20422;DHT22;10370;53.102;18.034;2022-10-16T07:09:20;15.10;99.90
20422;DHT22;10370;53.102;18.034;2022-10-16T07:14:42;15.10;99.90
20422;DHT22;10370;53.102;18.034;2022-10-16T07:20:03;15.30;99.90
20422;DHT22;10370;53.102;18.034;2022-10-16T07:25:24;15.50;99.90
20422;DHT22;10370;53.102;18.034;2022-10-16T07:30:53;15.70;99.90
20422;DHT22;10370;53.102;18.034;2022-10-16T07:41:34;16.50;99.90
20422;DHT22;10370;53.102;18.034;2022-10-16T07:46:57;16.40;99.90
20422;DHT22;10370;53.102;18.034;2022-10-16T07:52:21;16.40;99.90
20422;DHT22;10370;53.102;18.034;2022-10-16T07:57:42;16.30;99.90
20422;DHT22;10370;53.102;18.034;2022-10-16T08:03:02;16.30;99.90
20422;DHT22;10370;53.102;18.034;2022-10-16T08:08:23;16.40;99.90
20422;DHT22;10370;53.102;18.034;2022-10-16T08:13:44;16.40;99.90
20422;DHT22;10370;53.102;18.034;2022-10-16T08:19:04;16.50;99.90
20422;DHT22;10370;53.102;18.034;2022-10-16T08:24:25;16.80;99.90
20422;DHT22;10370;53.102;18.034;2022-10-16T08:29:48;17.10;99.90
20422;DHT22;10370;53.102;18.034;2022-10-16T08:35:09;17.20;99.90
20422;DHT22;10370;53.102;18.034;2022-10-16T08:40:30;17.40;99.90
20422;DHT22;10370;53.102;18.034;2022-10-16T08:51:27;17.40;99.90
20422;DHT22;10370;53.102;18.034;2022-10-16T08:56:48;17.40;99.90
20422;DHT22;10370;53.102;18.034;2022-10-16T09:07:43;17.20;99.90
20422;DHT22;10370;53.102;18.034;2022-10-16T09:18:41;17.30;99.90
20422;DHT22;10370;53.102;18.034;2022-10-16T09:24:09;17.30;99.90
20422;DHT22;10370;53.102;18.034;2022-10-16T09:29:32;17.40;99.90
20422;DHT22;10370;53.102;18.034;2022-10-16T09:34:53;17.50;99.90
20422;DHT22;10370;53.102;18.034;2022-10-16T09:40:36;17.50;99.90
20422;DHT22;10370;53.102;18.034;2022-10-16T09:46:01;17.50;99.90
20422;DHT22;10370;53.102;18.034;2022-10-16T09:51:27;17.60;99.90
20422;DHT22;10370;53.102;18.034;2022-10-16T09:56:48;17.80;99.90
20422;DHT22;10370;53.102;18.034;2022-10-16T10:02:13;17.90;99.90
20422;DHT22;10370;53.102;18.034;2022-10-16T10:07:40;17.90;99.90
20422;DHT22;10370;53.102;18.034;2022-10-16T10:13:03;18.00;99.90
20422;DHT22;10370;53.102;18.034;2022-10-16T10:18:23;18.00;99.90
20422;DHT22;10370;53.102;18.034;2022-10-16T10:23:45;17.90;99.90
20422;DHT22;10370;53.102;18.034;2022-10-16T10:29:30;17.90;99.90
20422;DHT22;10370;53.102;18.034;2022-10-16T10:35:07;18.00;99.90
20422;DHT22;10370;53.102;18.034;2022-10-16T10:46:16;18.50;99.90
20422;DHT22;10370;53.102;18.034;2022-10-16T10:51:44;18.60;99.90
20422;DHT22;10370;53.102;18.034;2022-10-16T10:57:14;18.70;99.90
20422;DHT22;10370;53.102;18.034;2022-10-16T11:08:50;18.50;99.90
20422;DHT22;10370;53.102;18.034;2022-10-16T11:14:15;18.40;99.90
20422;DHT22;10370;53.102;18.034;2022-10-16T11:19:48;18.30;99.90
20422;DHT22;10370;53.102;18.034;2022-10-16T11:30:38;18.40;99.90
20422;DHT22;10370;53.102;18.034;2022-10-16T11:41:34;18.50;99.90
20422;DHT22;10370;53.102;18.034;2022-10-16T11:53:01;18.50;99.90
20422;DHT22;10370;53.102;18.034;2022-10-16T11:58:32;18.60;99.90
20422;DHT22;10370;53.102;18.034;2022-10-16T12:09:34;18.60;99.90
20422;DHT22;10370;53.102;18.034;2022-10-16T12:15:01;18.60;99.90
20422;DHT22;10370;53.102;18.034;2022-10-16T12:20:42;18.60;99.90
20422;DHT22;10370;53.102;18.034;2022-10-16T12:26:06;18.60;99.90
20422;DHT22;10370;53.102;18.034;2022-10-16T12:31:35;18.40;99.90
20422;DHT22;10370;53.102;18.034;2022-10-16T12:37:15;18.30;99.90
20422;DHT22;10370;53.102;18.034;2022-10-16T12:42:42;18.30;99.90
20422;DHT22;10370;53.102;18.034;2022-10-16T12:48:17;18.30;99.90
20422;DHT22;10370;53.102;18.034;2022-10-16T12:53:39;18.30;99.90
20422;DHT22;10370;53.102;18.034;2022-10-16T12:59:13;18.30;99.90
20422;DHT22;10370;53.102;18.034;2022-10-16T13:31:48;18.60;99.90
20422;DHT22;10370;53.102;18.034;2022-10-16T13:37:16;18.70;99.90
20422;DHT22;10370;53.102;18.034;2022-10-16T13:42:37;18.90;99.90
20422;DHT22;10370;53.102;18.034;2022-10-16T13:48:02;19.10;99.90
20422;DHT22;10370;53.102;18.034;2022-10-16T13:53:23;19.00;99.90
20422;DHT22;10370;53.102;18.034;2022-10-16T13:58:43;19.00;99.90
20422;DHT22;10370;53.102;18.034;2022-10-16T14:04:09;19.00;99.90
20422;DHT22;10370;53.102;18.034;2022-10-16T14:09:30;19.10;99.90
20422;DHT22;10370;53.102;18.034;2022-10-16T14:14:52;18.90;99.90
20422;DHT22;10370;53.102;18.034;2022-10-16T14:20:14;18.80;99.90
20422;DHT22;10370;53.102;18.034;2022-10-16T14:25:36;18.70;99.90
20422;DHT22;10370;53.102;18.034;2022-10-16T14:30:58;18.70;99.90
20422;DHT22;10370;53.102;18.034;2022-10-16T14:36:20;18.70;99.90
20422;DHT22;10370;53.102;18.034;2022-10-16T14:41:43;18.70;99.90
20422;DHT22;10370;53.102;18.034;2022-10-16T14:47:09;18.60;99.90
20422;DHT22;10370;53.102;18.034;2022-10-16T14:52:32;18.50;99.90
20422;DHT22;10370;53.102;18.034;2022-10-16T14:57:53;18.40;99.90
20422;DHT22;10370;53.102;18.034;2022-10-16T15:03:16;18.40;99.90
20422;DHT22;10370;53.102;18.034;2022-10-16T15:08:37;18.20;99.90
20422;DHT22;10370;53.102;18.034;2022-10-16T15:13:58;18.20;99.90
20422;DHT22;10370;53.102;18.034;2022-10-16T15:19:18;18.10;99.90
20422;DHT22;10370;53.102;18.034;2022-10-16T15:24:39;18.00;99.90
20422;DHT22;10370;53.102;18.034;2022-10-16T15:30:00;17.90;99.90
20422;DHT22;10370;53.102;18.034;2022-10-16T15:35:21;17.70;99.90
20422;DHT22;10370;53.102;18.034;2022-10-16T15:40:41;17.60;99.90
20422;DHT22;10370;53.102;18.034;2022-10-16T15:46:06;17.40;99.90
20422;DHT22;10370;53.102;18.034;2022-10-16T15:51:30;17.20;99.90
20422;DHT22;10370;53.102;18.034;2022-10-16T16:12:59;16.50;99.90
20422;DHT22;10370;53.102;18.034;2022-10-16T16:18:23;16.30;99.90
20422;DHT22;10370;53.102;18.034;2022-10-16T16:24:25;16.10;99.90
20422;DHT22;10370;53.102;18.034;2022-10-16T16:30:09;16.00;99.90
20422;DHT22;10370;53.102;18.034;2022-10-16T16:46:45;15.60;99.90
20422;DHT22;10370;53.102;18.034;2022-10-16T16:57:28;15.30;99.90
20422;DHT22;10370;53.102;18.034;2022-10-16T17:02:50;15.20;99.90
20422;DHT22;10370;53.102;18.034;2022-10-16T17:24:51;14.50;99.90
20422;DHT22;10370;53.102;18.034;2022-10-16T17:30:18;14.40;99.90
20422;DHT22;10370;53.102;18.034;2022-10-16T17:35:43;14.30;99.90
20422;DHT22;10370;53.102;18.034;2022-10-16T17:58:07;14.00;99.90
20422;DHT22;10370;53.102;18.034;2022-10-16T18:09:23;13.90;99.90
20422;DHT22;10370;53.102;18.034;2022-10-16T18:14:44;13.80;99.90
20422;DHT22;10370;53.102;18.034;2022-10-16T18:20:05;13.70;99.90
20422;DHT22;10370;53.102;18.034;2022-10-16T18:52:24;13.20;99.90
20422;DHT22;10370;53.102;18.034;2022-10-16T18:57:46;13.00;99.90
20422;DHT22;10370;53.102;18.034;2022-10-16T19:03:06;12.90;99.90
20422;DHT22;10370;53.102;18.034;2022-10-16T19:08:27;12.70;99.90
20422;DHT22;10370;53.102;18.034;2022-10-16T19:13:51;12.60;99.90
20422;DHT22;10370;53.102;18.034;2022-10-16T19:19:15;12.50;99.90
20422;DHT22;10370;53.102;18.034;2022-10-16T19:24:37;12.40;99.90
20422;DHT22;10370;53.102;18.034;2022-10-16T19:29:59;12.30;99.90
20422;DHT22;10370;53.102;18.034;2022-10-16T19:35:19;12.20;99.90
20422;DHT22;10370;53.102;18.034;2022-10-16T19:40:42;12.20;99.90
20422;DHT22;10370;53.102;18.034;2022-10-16T19:46:03;12.30;99.90
20422;DHT22;10370;53.102;18.034;2022-10-16T19:51:24;12.30;99.90
20422;DHT22;10370;53.102;18.034;2022-10-16T19:56:46;12.30;99.90
20422;DHT22;10370;53.102;18.034;2022-10-16T20:02:08;12.20;99.90
20422;DHT22;10370;53.102;18.034;2022-10-16T20:07:29;12.10;99.90
20422;DHT22;10370;53.102;18.034;2022-10-16T20:12:51;12.10;99.90
20422;DHT22;10370;53.102;18.034;2022-10-16T20:18:12;12.00;99.90
20422;DHT22;10370;53.102;18.034;2022-10-16T20:23:33;11.80;99.90
20422;DHT22;10370;53.102;18.034;2022-10-16T20:28:54;11.60;99.90
20422;DHT22;10370;53.102;18.034;2022-10-16T20:34:15;11.40;99.90
20422;DHT22;10370;53.102;18.034;2022-10-16T20:39:36;11.40;99.90
20422;DHT22;10370;53.102;18.034;2022-10-16T20:44:57;11.40;99.90
20422;DHT22;10370;53.102;18.034;2022-10-16T20:50:18;11.60;99.90
20422;DHT22;10370;53.102;18.034;2022-10-16T20:55:38;11.30;99.90
20422;DHT22;10370;53.102;18.034;2022-10-16T21:01:03;11.20;99.90
20422;DHT22;10370;53.102;18.034;2022-10-16T21:06:24;11.20;99.90
20422;DHT22;10370;53.102;18.034;2022-10-16T21:11:45;11.10;99.90
20422;DHT22;10370;53.102;18.034;2022-10-16T21:17:06;10.90;99.90
20422;DHT22;10370;53.102;18.034;2022-10-16T21:22:28;10.90;99.90
20422;DHT22;10370;53.102;18.034;2022-10-16T21:27:49;10.80;99.90
20422;DHT22;10370;53.102;18.034;2022-10-16T21:33:10;10.60;99.90
20422;DHT22;10370;53.102;18.034;2022-10-16T21:38:30;10.40;99.90
20422;DHT22;10370;53.102;18.034;2022-10-16T21:43:51;10.40;99.90
20422;DHT22;10370;53.102;18.034;2022-10-16T21:49:14;10.30;99.90
20422;DHT22;10370;53.102;18.034;2022-10-16T21:54:35;10.20;99.90
20422;DHT22;10370;53.102;18.034;2022-10-16T21:59:55;10.10;99.90
20422;DHT22;10370;53.102;18.034;2022-10-16T22:05:16;10.10;99.90
20422;DHT22;10370;53.102;18.034;2022-10-16T22:10:36;10.00;99.90
20422;DHT22;10370;53.102;18.034;2022-10-16T22:15:57;10.00;99.90
20422;DHT22;10370;53.102;18.034;2022-10-16T22:21:18;10.00;99.90
20422;DHT22;10370;53.102;18.034;2022-10-16T22:26:38;9.90;99.90
20422;DHT22;10370;53.102;18.034;2022-10-16T22:31:59;9.80;99.90
20422;DHT22;10370;53.102;18.034;2022-10-16T22:37:20;9.80;99.90
20422;DHT22;10370;53.102;18.034;2022-10-16T22:42:40;9.70;99.90
20422;DHT22;10370;53.102;18.034;2022-10-16T22:48:01;9.70;99.90
20422;DHT22;10370;53.102;18.034;2022-10-16T22:53:22;9.60;99.90
20422;DHT22;10370;53.102;18.034;2022-10-16T22:58:43;9.60;99.90
20422;DHT22;10370;53.102;18.034;2022-10-16T23:04:04;9.60;99.90
20422;DHT22;10370;53.102;18.034;2022-10-16T23:09:25;9.40;99.90
20422;DHT22;10370;53.102;18.034;2022-10-16T23:14:46;9.30;99.90
20422;DHT22;10370;53.102;18.034;2022-10-16T23:20:07;9.30;99.90
20422;DHT22;10370;53.102;18.034;2022-10-16T23:25:27;9.30;99.90
20422;DHT22;10370;53.102;18.034;2022-10-16T23:30:48;9.40;99.90
20422;DHT22;10370;53.102;18.034;2022-10-16T23:36:13;9.40;99.90
20422;DHT22;10370;53.102;18.034;2022-10-16T23:41:34;9.40;99.90
20422;DHT22;10370;53.102;18.034;2022-10-16T23:46:55;9.40;99.90
20422;DHT22;10370;53.102;18.034;2022-10-16T23:52:15;9.50;99.90
20422;DHT22;10370;53.102;18.034;2022-10-16T23:57:36;9.40;99.90
